createdAt,value
2018-12-31T00:00:54.019Z,86.51
2018-12-31T00:03:23.351Z,86.61
2018-12-31T00:05:53.438Z,86.50
2018-12-31T00:08:21.960Z,86.42
2018-12-31T00:10:51.263Z,86.53
2018-12-31T00:13:20.512Z,86.68
2018-12-31T00:15:49.879Z,86.75
2018-12-31T00:18:19.159Z,86.46
2018-12-31T00:20:48.469Z,86.54
2018-12-31T00:23:17.713Z,86.88
2018-12-31T00:25:47.197Z,87.01
2018-12-31T00:28:16.551Z,87.22
2018-12-31T00:30:45.851Z,87.33
2018-12-31T00:33:15.107Z,87.44
2018-12-31T00:35:44.367Z,87.61
2018-12-31T00:38:13.633Z,87.90
2018-12-31T00:40:42.963Z,88.02
2018-12-31T00:43:12.273Z,88.08
2018-12-31T00:45:41.570Z,88.09
2018-12-31T00:48:10.871Z,88.20
2018-12-31T00:50:40.180Z,88.01
2018-12-31T00:53:09.489Z,88.20
2018-12-31T00:55:38.775Z,88.32
2018-12-31T00:58:08.062Z,88.57
2018-12-31T01:00:37.320Z,88.49
2018-12-31T01:03:06.596Z,88.38
2018-12-31T01:05:35.839Z,88.36
2018-12-31T01:08:05.145Z,88.28
2018-12-31T01:10:34.466Z,87.93
2018-12-31T01:13:03.732Z,88.00
2018-12-31T01:15:33.006Z,88.15
2018-12-31T01:18:02.331Z,88.25
2018-12-31T01:20:31.678Z,88.27
2018-12-31T01:23:00.952Z,88.16
2018-12-31T01:25:30.220Z,88.18
2018-12-31T01:27:59.580Z,88.11
2018-12-31T01:30:28.906Z,88.11
2018-12-31T01:32:58.148Z,88.21
2018-12-31T01:35:27.518Z,88.31
2018-12-31T01:37:56.768Z,88.41
2018-12-31T01:40:26.068Z,88.03
2018-12-31T01:42:55.317Z,88.05
2018-12-31T01:45:24.605Z,88.05
2018-12-31T01:47:53.965Z,88.14
2018-12-31T01:50:23.157Z,88.00
2018-12-31T01:52:52.413Z,88.16
2018-12-31T01:55:21.656Z,87.91
2018-12-31T01:57:51.001Z,88.12
2018-12-31T02:00:20.241Z,88.31
2018-12-31T02:02:49.515Z,88.43
2018-12-31T02:05:18.762Z,88.50
2018-12-31T02:07:48.109Z,88.63
2018-12-31T02:10:17.313Z,88.67
2018-12-31T02:12:46.595Z,88.81
2018-12-31T02:15:15.848Z,89.08
2018-12-31T02:17:45.203Z,89.03
2018-12-31T02:20:14.431Z,89.10
2018-12-31T02:22:43.705Z,89.22
2018-12-31T02:25:12.953Z,89.43
2018-12-31T02:27:42.199Z,89.38
2018-12-31T02:30:11.493Z,89.21
2018-12-31T02:32:40.796Z,89.16
2018-12-31T02:35:10.071Z,89.12
2018-12-31T02:37:39.323Z,89.27
2018-12-31T02:40:08.623Z,89.30
2018-12-31T02:42:37.898Z,89.41
2018-12-31T02:45:07.325Z,89.71
2018-12-31T02:47:36.564Z,89.84
2018-12-31T02:50:06.332Z,89.81
2018-12-31T02:52:35.572Z,89.84
2018-12-31T02:55:04.929Z,90.00
2018-12-31T02:57:34.155Z,89.97
2018-12-31T03:00:04.070Z,90.23
2018-12-31T03:02:33.303Z,90.47
2018-12-31T03:05:02.636Z,90.59
2018-12-31T03:07:31.902Z,90.60
2018-12-31T03:10:01.231Z,90.70
2018-12-31T03:12:30.491Z,90.96
2018-12-31T03:14:59.747Z,90.79
2018-12-31T03:17:29.010Z,90.92
2018-12-31T03:19:58.279Z,91.09
2018-12-31T03:22:27.534Z,91.12
2018-12-31T03:24:56.836Z,91.22
2018-12-31T03:27:26.122Z,91.36
2018-12-31T03:29:55.384Z,91.46
2018-12-31T03:32:24.634Z,91.56
2018-12-31T03:34:53.917Z,91.50
2018-12-31T03:37:23.250Z,91.82
2018-12-31T03:39:52.643Z,91.62
2018-12-31T03:42:21.929Z,91.88
2018-12-31T03:44:51.178Z,92.14
2018-12-31T03:47:20.546Z,92.15
2018-12-31T03:49:49.798Z,92.20
2018-12-31T03:52:19.158Z,92.23
2018-12-31T03:54:48.426Z,92.00
2018-12-31T03:57:17.692Z,92.13
2018-12-31T03:59:46.958Z,92.16
2018-12-31T04:02:16.191Z,92.24
2018-12-31T04:04:45.561Z,92.19
2018-12-31T04:07:14.786Z,92.12
2018-12-31T04:09:44.061Z,92.19
2018-12-31T04:12:13.299Z,92.01
2018-12-31T04:14:42.563Z,92.35
2018-12-31T04:17:11.826Z,92.12
2018-12-31T04:19:41.083Z,92.23
2018-12-31T04:22:10.359Z,92.38
2018-12-31T04:24:39.608Z,92.44
2018-12-31T04:27:08.875Z,92.48
2018-12-31T04:29:38.144Z,92.48
2018-12-31T04:32:07.378Z,92.67
2018-12-31T04:34:36.643Z,92.63
2018-12-31T04:37:05.964Z,92.65
2018-12-31T04:39:35.236Z,92.51
2018-12-31T04:42:04.524Z,92.44
2018-12-31T04:44:33.800Z,92.34
2018-12-31T04:47:03.375Z,92.52
2018-12-31T04:49:32.650Z,92.42
2018-12-31T04:52:01.936Z,92.37
2018-12-31T04:54:31.180Z,92.45
2018-12-31T04:57:00.439Z,92.49
2018-12-31T04:59:29.756Z,92.38
2018-12-31T05:01:59.073Z,92.28
2018-12-31T05:04:28.361Z,92.41
2018-12-31T05:06:57.652Z,92.37
2018-12-31T05:09:26.904Z,92.32
2018-12-31T05:11:56.136Z,92.36
2018-12-31T05:14:25.419Z,92.26
2018-12-31T05:16:54.666Z,92.28
2018-12-31T05:19:23.939Z,92.17
2018-12-31T05:21:53.170Z,92.11
2018-12-31T05:24:22.430Z,92.16
2018-12-31T05:26:51.674Z,92.27
2018-12-31T05:29:20.957Z,92.31
2018-12-31T05:31:50.258Z,92.46
2018-12-31T05:34:19.509Z,92.47
2018-12-31T05:36:48.820Z,92.52
2018-12-31T05:39:18.067Z,92.69
2018-12-31T05:41:47.360Z,92.64
2018-12-31T05:44:16.592Z,92.46
2018-12-31T05:46:45.846Z,92.62
2018-12-31T05:49:15.179Z,92.59
2018-12-31T05:51:44.456Z,92.90
2018-12-31T05:54:13.714Z,92.90
2018-12-31T05:56:43.093Z,92.94
2018-12-31T05:59:12.467Z,92.98
2018-12-31T06:01:41.801Z,93.14
2018-12-31T06:04:11.066Z,93.26
2018-12-31T06:06:40.347Z,93.38
2018-12-31T06:09:09.577Z,93.25
2018-12-31T06:11:38.858Z,93.37
2018-12-31T06:14:08.105Z,93.29
2018-12-31T06:16:37.368Z,93.32
2018-12-31T06:19:06.627Z,93.32
2018-12-31T06:21:35.893Z,93.39
2018-12-31T06:24:05.159Z,93.46
2018-12-31T06:26:34.430Z,93.53
2018-12-31T06:29:03.727Z,93.60
2018-12-31T06:31:32.965Z,93.56
2018-12-31T06:34:02.243Z,93.61
2018-12-31T06:36:31.569Z,93.62
2018-12-31T06:39:00.850Z,93.56
2018-12-31T06:41:30.122Z,93.59
2018-12-31T06:43:59.507Z,93.56
2018-12-31T06:46:28.789Z,93.56
2018-12-31T06:48:58.023Z,93.66
2018-12-31T06:51:27.296Z,93.65
2018-12-31T06:53:56.557Z,93.51
2018-12-31T06:56:25.804Z,93.58
2018-12-31T06:58:55.059Z,93.62
2018-12-31T07:01:24.321Z,93.66
2018-12-31T07:03:53.578Z,93.44
2018-12-31T07:06:22.825Z,93.46
2018-12-31T07:08:52.186Z,93.55
2018-12-31T07:11:21.457Z,93.51
2018-12-31T07:13:50.697Z,93.61
2018-12-31T07:16:20.117Z,93.50
2018-12-31T07:18:49.376Z,93.56
2018-12-31T07:21:18.680Z,93.65
2018-12-31T07:23:47.949Z,93.50
2018-12-31T07:26:17.282Z,93.50
2018-12-31T07:28:46.595Z,93.36
2018-12-31T07:31:15.866Z,93.37
2018-12-31T07:33:45.126Z,93.60
2018-12-31T07:36:14.380Z,93.54
2018-12-31T07:38:43.684Z,93.72
2018-12-31T07:41:12.947Z,93.86
2018-12-31T07:43:42.316Z,93.77
2018-12-31T07:46:11.587Z,93.80
2018-12-31T07:48:40.884Z,93.93
2018-12-31T07:51:10.144Z,93.99
2018-12-31T07:53:39.405Z,94.13
2018-12-31T07:56:08.667Z,94.16
2018-12-31T07:58:38.008Z,93.98
2018-12-31T08:01:07.237Z,94.04
2018-12-31T08:03:36.480Z,94.02
2018-12-31T08:06:05.789Z,94.07
2018-12-31T08:08:35.048Z,94.09
2018-12-31T08:11:04.322Z,94.01
2018-12-31T08:13:33.590Z,93.88
2018-12-31T08:16:02.904Z,93.92
2018-12-31T08:18:32.158Z,93.86
2018-12-31T08:21:01.520Z,93.73
2018-12-31T08:23:30.790Z,93.73
2018-12-31T08:26:00.118Z,93.74
2018-12-31T08:28:29.389Z,93.82
2018-12-31T08:30:58.693Z,93.97
2018-12-31T08:33:28.004Z,94.08
2018-12-31T08:35:57.265Z,93.99
2018-12-31T08:38:26.576Z,94.04
2018-12-31T08:40:55.847Z,93.89
2018-12-31T08:43:25.175Z,93.79
2018-12-31T08:45:54.446Z,93.69
2018-12-31T08:48:23.719Z,93.82
2018-12-31T08:50:53.005Z,93.81
2018-12-31T08:53:22.281Z,93.76
2018-12-31T08:55:51.719Z,93.68
2018-12-31T08:58:21.045Z,93.83
2018-12-31T09:00:50.277Z,93.74
2018-12-31T09:03:19.622Z,93.83
2018-12-31T09:05:48.871Z,93.89
2018-12-31T09:08:18.253Z,94.04
2018-12-31T09:10:47.521Z,94.09
2018-12-31T09:13:16.799Z,93.93
2018-12-31T09:15:46.091Z,93.87
2018-12-31T09:18:15.423Z,94.05
2018-12-31T09:20:44.717Z,94.10
2018-12-31T09:23:13.985Z,94.18
2018-12-31T09:25:43.274Z,94.15
2018-12-31T09:28:12.521Z,94.17
2018-12-31T09:30:41.796Z,94.14
2018-12-31T09:33:11.064Z,94.02
2018-12-31T09:35:40.361Z,93.95
2018-12-31T09:38:09.594Z,93.81
2018-12-31T09:40:38.838Z,93.97
2018-12-31T09:43:08.102Z,93.71
2018-12-31T09:45:37.376Z,93.63
2018-12-31T09:48:06.667Z,93.40
2018-12-31T09:50:35.906Z,93.48
2018-12-31T09:53:05.172Z,93.48
2018-12-31T09:55:34.410Z,93.42
2018-12-31T09:58:03.671Z,93.43
2018-12-31T10:00:32.995Z,92.96
2018-12-31T10:03:02.266Z,93.08
2018-12-31T10:05:31.538Z,93.17
2018-12-31T10:08:00.816Z,93.40
2018-12-31T10:10:30.062Z,93.24
2018-12-31T10:12:59.341Z,93.25
2018-12-31T10:15:28.590Z,93.05
2018-12-31T10:17:57.830Z,93.23
2018-12-31T10:20:27.103Z,93.07
2018-12-31T10:22:56.420Z,92.99
2018-12-31T10:25:25.688Z,93.10
2018-12-31T10:27:54.980Z,93.06
2018-12-31T10:30:24.247Z,92.77
2018-12-31T10:32:53.530Z,92.76
2018-12-31T10:35:22.865Z,92.88
2018-12-31T10:37:52.234Z,92.80
2018-12-31T10:40:21.547Z,92.45
2018-12-31T10:42:50.780Z,92.35
2018-12-31T10:45:20.068Z,92.29
2018-12-31T10:47:49.321Z,92.30
2018-12-31T10:50:18.632Z,92.38
2018-12-31T10:52:47.890Z,92.26
2018-12-31T10:55:17.234Z,92.05
2018-12-31T10:57:46.521Z,91.81
2018-12-31T11:00:15.795Z,92.16
2018-12-31T11:02:45.080Z,91.93
2018-12-31T11:05:14.346Z,92.21
2018-12-31T11:07:43.648Z,92.25
2018-12-31T11:10:12.885Z,92.45
2018-12-31T11:12:42.156Z,92.45
2018-12-31T11:15:11.442Z,92.38
2018-12-31T11:17:40.721Z,91.95
2018-12-31T11:20:09.981Z,91.95
2018-12-31T11:22:39.394Z,91.72
2018-12-31T11:25:08.750Z,91.68
2018-12-31T11:27:38.065Z,91.32
2018-12-31T11:30:08.166Z,91.67
2018-12-31T11:32:37.566Z,91.26
2018-12-31T11:35:07.292Z,91.20
2018-12-31T11:37:36.559Z,91.15
2018-12-31T11:40:06.804Z,91.05
2018-12-31T11:42:36.123Z,90.65
2018-12-31T11:45:06.114Z,90.64
2018-12-31T11:47:35.443Z,90.25
2018-12-31T11:50:04.747Z,90.06
2018-12-31T11:52:34.258Z,90.01
2018-12-31T11:55:03.668Z,90.21
2018-12-31T11:57:32.827Z,90.33
2018-12-31T12:00:02.168Z,90.45
2018-12-31T12:02:31.532Z,90.61
2018-12-31T12:05:00.852Z,91.13
2018-12-31T12:07:30.137Z,91.12
2018-12-31T12:09:59.653Z,91.35
2018-12-31T12:12:28.908Z,91.47
2018-12-31T12:14:58.129Z,91.49
2018-12-31T12:17:27.480Z,91.60
2018-12-31T12:19:56.754Z,91.69
2018-12-31T12:22:26.077Z,91.65
2018-12-31T12:24:55.389Z,91.68
2018-12-31T12:27:24.653Z,91.54
2018-12-31T12:29:53.940Z,91.41
2018-12-31T12:32:23.260Z,91.53
2018-12-31T12:34:52.518Z,91.58
2018-12-31T12:37:21.889Z,91.58
2018-12-31T12:39:51.261Z,91.53
2018-12-31T12:42:20.537Z,91.69
2018-12-31T12:44:49.858Z,91.71
2018-12-31T12:47:19.130Z,91.43
2018-12-31T12:49:48.488Z,91.81
2018-12-31T12:52:17.765Z,91.94
2018-12-31T12:54:47.104Z,91.88
2018-12-31T12:57:16.473Z,91.86
2018-12-31T12:59:45.749Z,91.79
2018-12-31T13:02:15.013Z,91.94
2018-12-31T13:04:44.314Z,91.76
2018-12-31T13:07:13.672Z,91.97
2018-12-31T13:09:42.967Z,91.96
2018-12-31T13:12:12.385Z,92.12
2018-12-31T13:14:41.650Z,92.11
2018-12-31T13:17:10.959Z,92.10
2018-12-31T13:19:40.298Z,92.00
2018-12-31T13:22:09.570Z,92.09
2018-12-31T13:24:39.187Z,92.09
2018-12-31T13:27:08.514Z,92.30
2018-12-31T13:29:37.918Z,92.26
2018-12-31T13:32:07.317Z,92.24
2018-12-31T13:34:36.587Z,92.48
2018-12-31T13:37:05.890Z,92.56
2018-12-31T13:39:35.205Z,92.63
2018-12-31T13:42:04.530Z,92.84
2018-12-31T13:44:33.904Z,92.84
2018-12-31T13:47:03.231Z,92.87
2018-12-31T13:49:32.593Z,92.78
2018-12-31T13:52:01.855Z,92.76
2018-12-31T13:54:31.242Z,92.76
2018-12-31T13:57:00.547Z,93.13
2018-12-31T13:59:29.859Z,93.20
2018-12-31T14:01:59.105Z,93.06
2018-12-31T14:04:28.540Z,92.93
2018-12-31T14:06:57.813Z,92.96
2018-12-31T14:09:27.154Z,92.96
2018-12-31T14:11:56.385Z,93.02
2018-12-31T14:14:25.755Z,93.14
2018-12-31T14:16:55.033Z,93.36
2018-12-31T14:19:24.365Z,93.39
2018-12-31T14:21:53.744Z,93.29
2018-12-31T14:24:23.043Z,93.16
2018-12-31T14:27:00.323Z,93.35
2018-12-31T14:29:21.733Z,93.24
2018-12-31T14:31:51.050Z,93.24
2018-12-31T14:34:20.336Z,93.26
2018-12-31T14:36:49.666Z,93.38
2018-12-31T14:39:19.041Z,93.29
2018-12-31T14:41:48.377Z,93.25
2018-12-31T14:44:17.621Z,93.41
2018-12-31T14:46:46.963Z,93.50
2018-12-31T14:49:16.248Z,93.58
2018-12-31T14:51:45.565Z,93.65
2018-12-31T14:54:14.949Z,93.33
2018-12-31T14:56:44.242Z,93.45
2018-12-31T14:59:13.534Z,93.65
2018-12-31T15:01:42.835Z,93.63
2018-12-31T15:04:12.126Z,93.33
2018-12-31T15:06:41.457Z,93.59
2018-12-31T15:09:10.754Z,93.50
2018-12-31T15:11:40.088Z,93.56
2018-12-31T15:14:09.454Z,93.52
2018-12-31T15:16:38.734Z,93.52
2018-12-31T15:19:07.999Z,93.52
2018-12-31T15:21:37.369Z,93.41
2018-12-31T15:24:06.791Z,93.46
2018-12-31T15:26:36.042Z,93.47
2018-12-31T15:29:05.326Z,93.27
2018-12-31T15:31:34.665Z,93.22
2018-12-31T15:34:03.950Z,93.30
2018-12-31T15:36:33.259Z,93.10
2018-12-31T15:39:02.545Z,93.01
2018-12-31T15:41:31.840Z,92.89
2018-12-31T15:44:01.139Z,92.96
2018-12-31T15:46:30.477Z,92.44
2018-12-31T15:48:59.773Z,92.40
2018-12-31T15:51:29.086Z,92.34
2018-12-31T15:53:58.368Z,91.82
2018-12-31T15:56:27.678Z,91.70
2018-12-31T15:58:56.990Z,91.68
2018-12-31T16:01:26.295Z,91.18
2018-12-31T16:03:55.581Z,91.24
2018-12-31T16:06:24.868Z,90.67
2018-12-31T16:08:54.189Z,90.81
2018-12-31T16:11:23.466Z,90.71
2018-12-31T16:13:52.791Z,90.75
2018-12-31T16:16:22.120Z,90.96
2018-12-31T16:18:51.379Z,90.77
2018-12-31T16:21:20.692Z,90.88
2018-12-31T16:23:49.983Z,90.96
2018-12-31T16:26:19.254Z,90.67
2018-12-31T16:28:48.585Z,90.68
2018-12-31T16:31:17.883Z,90.87
2018-12-31T16:33:47.213Z,90.79
2018-12-31T16:36:16.521Z,90.73
2018-12-31T16:38:45.805Z,91.06
2018-12-31T16:41:15.061Z,91.06
2018-12-31T16:43:44.447Z,90.99
2018-12-31T16:46:13.722Z,90.94
2018-12-31T16:48:42.994Z,90.83
2018-12-31T16:51:12.327Z,90.85
2018-12-31T16:53:41.602Z,90.47
2018-12-31T16:56:10.869Z,90.71
2018-12-31T16:58:40.159Z,90.33
2018-12-31T17:01:09.483Z,90.31
2018-12-31T17:03:38.802Z,90.38
2018-12-31T17:06:08.114Z,90.64
2018-12-31T17:08:37.389Z,90.64
2018-12-31T17:11:06.719Z,90.48
2018-12-31T17:13:36.000Z,90.26
2018-12-31T17:16:05.309Z,90.31
2018-12-31T17:18:34.755Z,90.34
2018-12-31T17:21:04.011Z,90.34
2018-12-31T17:23:33.300Z,89.65
2018-12-31T17:26:02.583Z,89.42
2018-12-31T17:28:31.856Z,89.28
2018-12-31T17:31:01.144Z,89.27
2018-12-31T17:33:30.443Z,89.16
2018-12-31T17:35:59.733Z,89.22
2018-12-31T17:38:28.979Z,89.22
2018-12-31T17:40:58.267Z,89.44
2018-12-31T17:43:27.519Z,89.52
2018-12-31T17:45:56.820Z,89.58
2018-12-31T17:48:26.076Z,89.60
2018-12-31T17:50:55.363Z,89.38
2018-12-31T17:53:24.630Z,89.64
2018-12-31T17:55:54.052Z,89.59
2018-12-31T17:58:23.306Z,89.53
2018-12-31T18:00:52.602Z,89.49
2018-12-31T18:03:21.880Z,89.55
2018-12-31T18:05:51.221Z,89.72
2018-12-31T18:08:20.511Z,89.16
2018-12-31T18:10:49.835Z,89.16
2018-12-31T18:13:19.190Z,89.22
2018-12-31T18:15:48.459Z,88.83
2018-12-31T18:18:17.745Z,88.83
2018-12-31T18:20:47.149Z,88.81
2018-12-31T18:23:16.496Z,88.81
2018-12-31T18:25:45.831Z,88.81
2018-12-31T18:28:15.109Z,88.67
2018-12-31T18:30:44.543Z,88.51
2018-12-31T18:33:13.796Z,88.99
2018-12-31T18:35:43.142Z,88.92
2018-12-31T18:38:12.460Z,88.97
2018-12-31T18:40:41.734Z,89.03
2018-12-31T18:43:10.991Z,89.08
2018-12-31T18:45:40.306Z,89.14
2018-12-31T18:48:09.616Z,89.18
2018-12-31T18:50:38.844Z,89.17
2018-12-31T18:53:08.120Z,89.04
2018-12-31T18:55:37.457Z,89.13
2018-12-31T18:58:06.744Z,89.04
2018-12-31T19:00:36.038Z,89.04
2018-12-31T19:03:05.598Z,89.10
2018-12-31T19:05:35.884Z,88.90
2018-12-31T19:08:05.182Z,88.71
2018-12-31T19:10:34.496Z,88.82
2018-12-31T19:13:03.759Z,89.00
2018-12-31T19:15:33.047Z,88.95
2018-12-31T19:18:02.394Z,88.95
2018-12-31T19:20:31.870Z,89.11
2018-12-31T19:23:01.159Z,89.07
2018-12-31T19:25:30.431Z,88.52
2018-12-31T19:27:59.704Z,88.52
2018-12-31T19:30:28.953Z,88.70
2018-12-31T19:32:58.255Z,88.37
2018-12-31T19:35:27.479Z,88.37
2018-12-31T19:37:56.746Z,87.04
2018-12-31T19:40:26.091Z,86.49
2018-12-31T19:42:55.448Z,86.49
2018-12-31T19:45:24.679Z,87.19
2018-12-31T19:47:55.705Z,87.19
2018-12-31T19:50:23.212Z,87.05
2018-12-31T19:52:52.505Z,87.14
2018-12-31T19:55:21.811Z,87.11
2018-12-31T19:57:51.066Z,87.43
2018-12-31T20:00:20.434Z,87.71
2018-12-31T20:02:49.690Z,87.70
2018-12-31T20:05:18.950Z,87.89
2018-12-31T20:07:48.223Z,87.82
2018-12-31T20:10:17.501Z,87.82
2018-12-31T20:12:46.749Z,87.62
2018-12-31T20:15:16.049Z,87.25
2018-12-31T20:17:45.294Z,87.25
2018-12-31T20:20:14.543Z,87.37
2018-12-31T20:22:43.829Z,86.99
2018-12-31T20:25:13.079Z,87.10
2018-12-31T20:27:42.342Z,86.90
2018-12-31T20:30:11.587Z,86.65
2018-12-31T20:32:40.850Z,86.72
2018-12-31T20:35:10.089Z,86.59
2018-12-31T20:37:39.405Z,85.65
2018-12-31T20:40:08.706Z,85.17
2018-12-31T20:42:37.995Z,85.37
2018-12-31T20:45:07.273Z,85.25
2018-12-31T20:47:36.630Z,85.25
2018-12-31T20:50:06.148Z,85.35
2018-12-31T20:52:35.587Z,85.04
2018-12-31T20:55:05.117Z,85.11
2018-12-31T20:57:34.417Z,85.25
2018-12-31T21:00:03.749Z,85.12
2018-12-31T21:02:33.031Z,84.37
2018-12-31T21:05:02.295Z,83.69
2018-12-31T21:07:31.550Z,83.38
2018-12-31T21:10:00.830Z,83.17
2018-12-31T21:12:30.085Z,83.56
2018-12-31T21:14:59.365Z,83.42
2018-12-31T21:17:28.743Z,83.41
2018-12-31T21:19:58.037Z,83.62
2018-12-31T21:22:27.302Z,83.62
2018-12-31T21:24:56.602Z,83.31
2018-12-31T21:27:25.855Z,83.45
2018-12-31T21:29:55.143Z,83.44
2018-12-31T21:32:24.400Z,83.61
2018-12-31T21:34:53.672Z,83.34
2018-12-31T21:37:22.915Z,82.94
2018-12-31T21:39:52.179Z,83.07
2018-12-31T21:42:21.450Z,82.73
2018-12-31T21:44:50.713Z,82.16
2018-12-31T21:47:22.399Z,82.32
2018-12-31T21:49:49.225Z,82.46
2018-12-31T21:52:18.497Z,81.62
2018-12-31T21:54:47.743Z,81.87
2018-12-31T21:57:18.230Z,81.76
2018-12-31T21:59:46.281Z,81.80
2018-12-31T22:02:15.566Z,81.45
2018-12-31T22:04:44.861Z,81.57
2018-12-31T22:07:14.129Z,81.65
2018-12-31T22:09:43.405Z,81.23
2018-12-31T22:12:12.768Z,81.55
2018-12-31T22:14:42.041Z,81.53
2018-12-31T22:17:11.337Z,81.11
2018-12-31T22:19:40.609Z,81.14
2018-12-31T22:22:09.886Z,80.97
2018-12-31T22:24:39.218Z,81.17
2018-12-31T22:27:08.539Z,80.62
2018-12-31T22:29:37.821Z,80.70
2018-12-31T22:32:07.069Z,80.90
2018-12-31T22:34:36.358Z,80.43
2018-12-31T22:37:05.615Z,80.56
2018-12-31T22:39:34.943Z,80.24
2018-12-31T22:42:04.221Z,80.22
2018-12-31T22:44:33.482Z,80.50
2018-12-31T22:47:02.774Z,80.64
2018-12-31T22:49:32.032Z,80.41
2018-12-31T22:52:01.324Z,80.08
2018-12-31T22:54:30.556Z,79.32
2018-12-31T22:56:59.844Z,79.67
2018-12-31T22:59:29.148Z,79.07
2018-12-31T23:01:58.407Z,79.17
2018-12-31T23:04:27.692Z,78.68
2018-12-31T23:07:00.687Z,78.35
2018-12-31T23:09:29.920Z,78.14
2018-12-31T23:11:59.164Z,78.54
2018-12-31T23:14:28.425Z,78.13
2018-12-31T23:17:00.900Z,78.13
2018-12-31T23:19:30.180Z,78.39
2018-12-31T23:21:59.423Z,77.99
2018-12-31T23:24:28.742Z,78.13
2018-12-31T23:26:58.208Z,77.78
2018-12-31T23:29:27.387Z,77.83
2018-12-31T23:31:56.686Z,77.67
2018-12-31T23:34:26.054Z,77.81
2018-12-31T23:36:55.329Z,77.58
2018-12-31T23:39:24.640Z,77.63
2018-12-31T23:41:53.902Z,77.58
2018-12-31T23:44:23.164Z,77.58
2018-12-31T23:46:52.497Z,77.73
2018-12-31T23:49:21.720Z,77.50
2018-12-31T23:51:50.986Z,78.20
2018-12-31T23:54:20.255Z,78.25
2018-12-31T23:56:50.626Z,79.26
2018-12-31T23:59:18.774Z,79.26
